Flight Track Log - Related Links

Times and Time Zones

All times are in EDT time to prevent confusion due to time zone crossing. See the EJA729 flight status page for this flight to view local times or setup timezone preferences in your user account.

Time Position Orientation Groundspeed Altitude Reporting Facility
EDT Latitude Longitude Course Direction KTS MPH feet Rate Location/Type
Mon 10:48:36 AM 39.6433 -106.8992 69° East 4 5 6,300  Level Denver Center
Mon 10:49:38 AM 39.6442 -106.8989 14° North 4 5 6,300 968 Level Denver Center
Mon 10:50:40 AM 39.6233 -106.9694 249° West 203 234 8,300 2,226 Climbing Denver Center
Mon 10:51:42 AM 39.5989 -107.0464 248° West 255 293 10,900 2,471 Climbing Denver Center
Mon 10:52:56 AM 39.6694 -107.0764 342° North 281 323 13,900 2,735 Climbing Denver Center
Mon 10:53:58 AM 39.7753 -107.0472 12° North 333 383 17,100 2,855 Climbing Denver Center
Mon 10:54:00 AM 40.0595 -106.2286 72° East  Level FlightAware Approximate
Mon 10:55:00 AM 40.1098 -106.0909 69° East  Level FlightAware Approximate
Mon 10:55:00 AM 39.8211 -106.9272 64° Northeast 364 419 19,800  Level Denver Center
Mon 10:57:05 AM 39.8928 -106.6233 73° East 416 479 23,000 1,032 Climbing Denver Center
Mon 10:58:06 AM 39.9225 -106.4986 73° East 442 509 23,000 387 Level Denver Center
Mon 10:59:09 AM 39.9653 -106.3131 73° East 444 511 23,800 1,276 Climbing Denver Center
Mon 11:00:13 AM 40.0022 -106.1586 73° East 444 511 25,700 1,181 Climbing Denver Center
Mon 11:02:17 AM 40.0764 -105.8142 74° East 471 542 27,500 1,290 Climbing Denver Center
Mon 11:03:19 AM 40.1169 -105.6461 72° East 454 522 29,700 1,839 Climbing Denver Center
Mon 11:04:21 AM 40.1497 -105.4942 74° East 438 504 31,300 1,548 Climbing Denver Center
Mon 11:05:23 AM 40.1886 -105.3264 73° East 447 514 32,900 1,500 Climbing Denver Center
Mon 11:06:25 AM 40.2208 -105.1742 74° East 437 503 34,400 1,500 Climbing Denver Center
Mon 11:07:27 AM 40.2586 -105.0100 73° East 438 504 36,000 1,306 Climbing Denver Center
Mon 11:08:29 AM 40.2914 -104.8594 74° East 432 497 37,100 1,016 Climbing Denver Center
Mon 11:09:31 AM 40.3247 -104.7039 74° East 442 509 38,100 871 Climbing Denver Center
Mon 11:10:33 AM 40.3528 -104.5747 74° East 439 505 38,900 290 Climbing Denver Center
Mon 11:12:37 AM 40.4278 -104.2136 75° East 447 514 39,000 32 Climbing Denver Center
Mon 11:13:39 AM 40.4617 -104.0506 75° East 433 498 39,000  Level Denver Center
Mon 11:14:41 AM 40.4933 -103.8997 75° East 439 505 39,000  Level Denver Center
Mon 11:15:43 AM 40.5250 -103.7472 75° East 449 517 39,000  Level Denver Center
Mon 11:16:45 AM 40.5611 -103.5658 75° East 455 524 39,000  Level Denver Center
Mon 11:17:47 AM 40.5914 -103.4147 75° East 452 520 39,000  Level Denver Center
Mon 11:19:00 AM 40.5694 -103.2236 99° East  Level FlightAware Approximate
Mon 11:20:54 AM 40.6947 -102.9064 74° East 448 516 39,000  Level Denver Center
Mon 11:21:56 AM 40.7236 -102.7531 76° East 450 518 39,000  Level Denver Center
Mon 11:22:58 AM 40.7581 -102.5767 75° East 446 513 39,000  Level Denver Center
Mon 11:24:00 AM 40.7878 -102.4242 76° East 448 516 39,000  Level Denver Center
Mon 11:25:02 AM 40.8217 -102.2472 76° East 445 512 39,000  Level Denver Center
Mon 11:26:00 AM 40.6962 -102.1349 74° East  Level FlightAware Approximate
Mon 11:26:05 AM 40.8506 -102.0939 76° East 448 516 39,000  Level Denver Center
Mon 11:27:06 AM 40.8847 -101.9153 76° East 450 518 39,000  Level Denver Center
Mon 11:28:08 AM 40.9142 -101.7594 76° East 455 524 39,000  Level Denver Center
Mon 11:29:10 AM 40.9486 -101.5792 76° East 454 522 39,000  Level Denver Center
Mon 11:30:12 AM 40.9767 -101.4233 77° East 453 521 39,000  Level Denver Center
Mon 11:31:14 AM 41.0061 -101.2683 76° East 453 521 39,000  Level Denver Center
Mon 11:32:16 AM 41.0383 -101.0867 77° East 451 519 39,000  Level Denver Center
Mon 11:33:18 AM 41.0664 -100.9306 77° East 452 520 39,000  Level Denver Center
Mon 11:34:20 AM 41.0911 -100.7994 76° East 453 521 39,000  Level Denver Center
Mon 11:35:23 AM 41.1278 -100.5889 77° East 455 524 39,000  Level Denver Center
Mon 11:36:25 AM 41.1592 -100.4039 77° East 457 526 39,000  Level Denver Center
Mon 11:37:27 AM 41.1875 -100.2461 77° East 458 527 39,000  Level Denver Center
Mon 11:38:29 AM 41.2142 -100.0878 77° East 458 527 39,000  Level Denver Center
Mon 11:39:31 AM 41.2444 -99.9044 78° East 456 525 39,000  Level Denver Center
Mon 11:40:33 AM 41.2717 -99.7456 77° East 458 527 39,000  Level Denver Center
Mon 11:42:06 AM 41.3178 -99.4678 77° East 460 529 39,000  Level Minneapolis Center
Mon 11:42:37 AM 41.3289 -99.4000 78° East 460 529 39,000  Level Denver Center
Mon 11:43:39 AM 41.3561 -99.2314 78° East 462 532 39,000  Level Denver Center
Mon 11:44:41 AM 41.3842 -99.0619 78° East 464 534 39,000  Level Denver Center
Mon 11:45:43 AM 41.4114 -98.8911 78° East 465 535 39,000  Level Denver Center
Mon 11:46:14 AM 41.4264 -98.7828 80° East 463 533 39,000  Level Minneapolis Center
Mon 11:47:16 AM 41.4533 -98.6131 78° East 465 535 39,000  Level Minneapolis Center
Mon 11:48:18 AM 41.4800 -98.4500 78° East 464 534 39,000  Level Minneapolis Center
Mon 11:49:20 AM 41.5061 -98.2814 78° East 463 533 39,000  Level Minneapolis Center
Mon 11:50:22 AM 41.5328 -98.1100 78° East 464 534 39,000  Level Minneapolis Center
Mon 11:51:25 AM 41.5578 -97.9419 79° East 463 533 39,000  Level Minneapolis Center
Mon 11:53:29 AM 41.6131 -97.5714 79° East 462 532 39,000  Level Minneapolis Center
Mon 11:54:31 AM 41.6381 -97.4019 79° East 464 534 39,000  Level Minneapolis Center
Mon 11:55:33 AM 41.6622 -97.2331 79° East 463 533 39,000  Level Minneapolis Center
Mon 11:56:35 AM 41.6861 -97.0650 79° East 461 531 39,000  Level Minneapolis Center
Mon 11:57:37 AM 41.7100 -96.8947 79° East 464 534 39,000  Level Minneapolis Center
Mon 11:58:39 AM 41.7378 -96.6908 80° East 463 533 39,000  Level Minneapolis Center
Mon 11:59:44 AM 41.7622 -96.5197 79° East 464 534 39,000  Level Minneapolis Center
Mon 12:00:46 PM 41.7844 -96.3481 80° East 467 537 39,000  Level Minneapolis Center
Mon 12:01:48 PM 41.8083 -96.1756 79° East 467 537 39,000  Level Minneapolis Center
Mon 12:02:50 PM 41.8308 -96.0019 80° East 469 540 39,000  Level Minneapolis Center
Mon 12:03:52 PM 41.8544 -95.8286 80° East 468 539 39,000  Level Minneapolis Center
Mon 12:04:54 PM 41.8803 -95.6192 81° East 472 543 39,000  Level Minneapolis Center
Mon 12:05:56 PM 41.9028 -95.4431 80° East 476 548 39,000  Level Minneapolis Center
Mon 12:06:59 PM 41.9244 -95.2708 80° East 470 541 39,000  Level Minneapolis Center
Mon 12:08:01 PM 41.9461 -95.0961 80° East 471 542 39,000  Level Minneapolis Center
Mon 12:09:03 PM 41.9683 -94.9242 80° East 469 540 39,000  Level Minneapolis Center
Mon 12:10:05 PM 41.9878 -94.7514 81° East 468 539 39,000  Level Minneapolis Center
Mon 12:12:33 PM 42.0369 -94.3322 81° East 463 533 39,000  Level Chicago Center
Mon 12:13:11 PM 42.0522 -94.2028 81° East 463 533 39,000 -60 Level Minneapolis Center
Mon 12:14:13 PM 42.0719 -94.0314 81° East 464 534 38,900 -642 Descending Minneapolis Center
Mon 12:16:18 PM 42.1122 -93.6858 81° East 469 540 37,000 -610 Descending Minneapolis Center
Mon 12:17:20 PM 42.1311 -93.5128 82° East 471 542 37,000  Level Minneapolis Center
Mon 12:18:22 PM 42.1539 -93.3033 82° East 475 547 37,000  Level Minneapolis Center
Mon 12:19:24 PM 42.1719 -93.1289 82° East 475 547 37,000  Level Minneapolis Center
Mon 12:20:26 PM 42.1897 -92.9544 82° East 475 547 37,000 -435 Level Minneapolis Center
Mon 12:21:28 PM 42.2083 -92.7800 82° East 475 547 36,100 -919 Descending Minneapolis Center
Mon 12:22:30 PM 42.2264 -92.6069 82° East 473 544 35,100 -532 Descending Minneapolis Center
Mon 12:23:32 PM 42.2467 -92.4022 82° East 467 537 35,000 -48 Descending Minneapolis Center
Mon 12:24:34 PM 42.2639 -92.2281 82° East 469 540 35,000 -581 Level Minneapolis Center
Mon 12:25:36 PM 42.2800 -92.0550 83° East 471 542 33,800 -919 Descending Minneapolis Center
Mon 12:26:38 PM 42.2967 -91.8839 82° East 470 541 33,100 -1,065 Descending Minneapolis Center
Mon 12:27:40 PM 42.3161 -91.6761 83° East 471 542 31,600 -1,355 Descending Minneapolis Center
Mon 12:28:42 PM 42.3314 -91.5003 83° East 477 549 30,300 -1,296 Descending Minneapolis Center
Mon 12:29:45 PM 42.3475 -91.3267 83° East 475 547 28,900 -1,344 Descending Minneapolis Center
Mon 12:30:47 PM 42.3628 -91.1481 83° East 481 554 27,500 -1,210 Descending Minneapolis Center
Mon 12:31:49 PM 42.3797 -90.9561 83° East 481 554 26,400 -1,562 Descending Minneapolis Center
Mon 12:33:13 PM 42.4000 -90.7017 84° East 462 532 23,700 -1,726 Descending Chicago Center
Mon 12:34:15 PM 42.3814 -90.5350 99° East 457 526 22,200 -1,452 Descending Chicago Center
Mon 12:35:17 PM 42.3631 -90.3733 99° East 442 509 20,700 -1,516 Descending Chicago Center
Mon 12:37:21 PM 42.3275 -90.0403 98° East 402 463 17,500 -1,613 Descending Chicago Center
Mon 12:38:23 PM 42.3108 -89.9008 99° East 373 429 15,700 -1,694 Descending Chicago Center
Mon 12:39:25 PM 42.2947 -89.7667 99° East 365 420 14,000 -1,645 Descending Chicago Center
Mon 12:40:27 PM 42.2783 -89.6350 100° East 360 414 12,300 -1,548 Descending Chicago Center
Mon 12:41:29 PM 42.2631 -89.5097 99° East 342 394 10,800 -1,065 Descending Chicago Center
Mon 12:43:33 PM 42.2514 -89.2903 94° East 271 312 9,000 -871 Descending Chicago Center
Mon 12:44:35 PM 42.2675 -89.1906 78° East 271 312 8,100 -1,210 Descending Chicago Center
Mon 12:45:37 PM 42.2822 -89.0950 78° East 264 304 6,500 -995 Descending Chicago Center
Mon 12:47:00 PM 42.2833 -88.8631 90° East  Level FlightAware Approximate
Mon 12:47:42 PM 42.3097 -88.9200 90° East 239 275 5,000  Level Chicago Center
Mon 12:48:44 PM 42.3239 -88.8281 78° East 237 273 5,000  Level Chicago Center
Mon 12:49:46 PM 42.3383 -88.7297 79° East 239 275 5,000  Level Chicago Center
Mon 12:50:48 PM 42.3528 -88.6408 78° East 242 278 5,000  Level Chicago Center
Mon 12:51:50 PM 42.3594 -88.5483 84° East 247 284 5,000 -48 Level Chicago Center
Mon 12:52:52 PM 42.3586 -88.4561 91° East 247 284 4,900 -48 Descending Chicago Center
Mon 12:53:54 PM 42.3589 -88.3500 90° East 245 282 4,900  Level Chicago Center
Mon 12:54:56 PM 42.3414 -88.2708 107° East 240 276 4,900 -290 Level Chicago Center
Mon 12:55:58 PM 42.3097 -88.2083 124° Southeast 227 261 4,300 -1,161 Descending Chicago Center
Mon 12:57:00 PM 42.2686 -88.1261 124° Southeast 223 257 2,500 -1,113 Descending Chicago Center
Mon 12:58:02 PM 42.2350 -88.0622 125° Southeast 218 251 2,000 -145 Descending Chicago Center
Mon 12:59:04 PM 42.1983 -88.0089 133° Southeast 209 241 2,200 97 Climbing Chicago Center
Mon 01:00:06 PM 42.1589 -87.9608 138° Southeast 207 238 2,200  Level Chicago Center
Mon 01:02:00 PM 42.1143 -87.9015 124° Southeast  Level Estimated
Mon 01:09:00 PM 42.1143 -87.9015 124° Southeast  Level Estimated
Mon 01:10:00 PM 42.1143 -87.9015 124° Southeast  Level Estimated
Mon 01:11:00 PM 42.1143 -87.9015 124° Southeast  Level Estimated

Login

Don't have an account? Register now (free) for customized features, flight alerts, and more!